Tomintoul, United Kingdom
Current Conditions -  °F | °C
As of 2:50 AM on Sunday 26 Oct 2014 (Local Time) from EGQK Reporting Station
Broken Clouds Broken Clouds  
Wind Chill: 54°   Ceiling: 4800
Heat Index: 54°   Visibility: 6mi
Dew Point: 45°   Wind: 29mph
Humidity: 72%   Direction: 220°SW
Pressure: 29.41"   Gusts: 40mph
Location:  57.18°N, 3.3°W
Report Text: EGQK 260150Z AUTO 22025G35KT 9999 BKN048/// 12/07 Q0996 RERA
Loading
Personal Weather Stations






























Interactive Weather Map
Tropical Storm Tracking
New forecast layout! Learn more

10-Day Weather Forecast

Advertisements
Track Severe Weather on mobile